Time;durP1;ratioP1;P1;durP2;ratioP2;P2;SDS_P1;SDS_P2;PMS_P1;PMS_P2;Temp;Humidity;BMP_temperature;BMP_pressure;BME280_temperature;BME280_humidity;BME280_pressure;Samples;Min_cycle;Max_cycle;Signal;HPM_P1;HPM_P2
2021/11/11 00:01:23;;;;;;;19.00;13.20;;;;;;;;;;5053718;28;20029;-57
2021/11/11 00:03:49;;;;;;;20.98;15.10;;;;;;;;;;5053335;28;20055;-58
2021/11/11 00:06:15;;;;;;;19.77;14.65;;;;;;;;;;5053089;28;20051;-58
2021/11/11 00:08:41;;;;;;;21.63;14.27;;;;;;;;;;5053750;28;20364;-58
2021/11/11 00:11:07;;;;;;;21.38;14.00;;;;;;;;;;5053483;28;20029;-58
2021/11/11 00:13:33;;;;;;;19.83;16.10;;;;;;;;;;5053503;28;20033;-58
2021/11/11 00:15:59;;;;;;;16.10;14.02;;;;;;;;;;5053333;28;20098;-58
2021/11/11 00:18:25;;;;;;;21.83;15.07;;;;;;;;;;5052556;28;20025;-58
2021/11/11 00:20:51;;;;;;;17.88;13.25;;;;;;;;;;5053223;28;20087;-58
2021/11/11 00:23:17;;;;;;;15.75;12.65;;;;;;;;;;5053434;28;20032;-58
2021/11/11 00:25:43;;;;;;;18.98;14.05;;;;;;;;;;5052992;28;20112;-58
2021/11/11 00:28:09;;;;;;;19.42;13.73;;;;;;;;;;5052578;28;20455;-58
2021/11/11 00:30:35;;;;;;;18.10;14.02;;;;;;;;;;5053113;28;20067;-58
2021/11/11 00:33:02;;;;;;;16.85;13.75;;;;;;;;;;5052775;28;20159;-58
2021/11/11 00:35:29;;;;;;;15.00;13.40;;;;;;;;;;5052775;28;20487;-58
2021/11/11 00:37:57;;;;;;;16.67;12.55;;;;;;;;;;5052442;28;20032;-58
2021/11/11 00:40:24;;;;;;;18.58;14.18;;;;;;;;;;5053102;28;20045;-58
2021/11/11 00:42:50;;;;;;;14.90;13.27;;;;;;;;;;5052991;28;20400;-58
2021/11/11 00:45:17;;;;;;;18.58;14.60;;;;;;;;;;5052918;28;20059;-58
2021/11/11 00:47:44;;;;;;;16.83;13.15;;;;;;;;;;5051828;28;20387;-58
2021/11/11 00:50:11;;;;;;;18.05;14.93;;;;;;;;;;5052910;28;20025;-58
2021/11/11 00:52:37;;;;;;;15.40;13.55;;;;;;;;;;5052746;28;20068;-58
2021/11/11 00:55:04;;;;;;;18.17;14.50;;;;;;;;;;5052702;28;20036;-58
2021/11/11 00:57:30;;;;;;;19.85;16.02;;;;;;;;;;5051945;28;20025;-58
2021/11/11 00:59:57;;;;;;;16.23;12.77;;;;;;;;;;5052624;28;20052;-58
2021/11/11 01:02:23;;;;;;;17.02;14.82;;;;;;;;;;5052356;28;20091;-58
2021/11/11 01:04:50;;;;;;;25.58;15.68;;;;;;;;;;5052590;28;20068;-58
2021/11/11 01:07:16;;;;;;;19.40;14.98;;;;;;;;;;5052067;28;20025;-58
2021/11/11 01:09:42;;;;;;;18.17;13.77;;;;;;;;;;5052654;28;20025;-58
2021/11/11 01:12:08;;;;;;;16.73;14.00;;;;;;;;;;5052264;28;20033;-58
2021/11/11 01:14:35;;;;;;;17.42;14.25;;;;;;;;;;5052240;28;20028;-58
2021/11/11 01:17:00;;;;;;;18.48;13.90;;;;;;;;;;5051747;28;20036;-58
2021/11/11 01:19:26;;;;;;;14.80;12.25;;;;;;;;;;5052437;28;20470;-58
2021/11/11 01:21:53;;;;;;;19.50;14.77;;;;;;;;;;5052210;28;20072;-58
2021/11/11 01:24:19;;;;;;;16.58;13.18;;;;;;;;;;5052326;28;20040;-58
2021/11/11 01:26:45;;;;;;;19.17;13.88;;;;;;;;;;5051496;28;20067;-58
2021/11/11 01:29:11;;;;;;;20.35;14.65;;;;;;;;;;5052140;28;20063;-58
2021/11/11 01:31:37;;;;;;;18.88;13.05;;;;;;;;;;5052132;28;20483;-58
2021/11/11 01:34:03;;;;;;;18.83;14.73;;;;;;;;;;5052453;28;20520;-58
2021/11/11 01:36:30;;;;;;;16.45;13.48;;;;;;;;;;5051212;28;20041;-58
2021/11/11 01:38:56;;;;;;;15.05;13.10;;;;;;;;;;5052164;28;20033;-58
2021/11/11 01:41:22;;;;;;;17.77;14.50;;;;;;;;;;5052028;28;20269;-58
2021/11/11 01:43:48;;;;;;;16.63;13.75;;;;;;;;;;5051943;28;20036;-58
2021/11/11 01:46:14;;;;;;;17.90;14.30;;;;;;;;;;5051549;28;20029;-58
2021/11/11 01:48:40;;;;;;;16.15;12.90;;;;;;;;;;5054998;28;20040;-58
2021/11/11 01:51:07;;;;;;;17.25;13.85;;;;;;;;;;5058782;28;20133;-58
2021/11/11 01:53:33;;;;;;;19.73;14.20;;;;;;;;;;5058402;28;20033;-57
2021/11/11 01:55:59;;;;;;;18.42;13.95;;;;;;;;;;5058504;28;20041;-58
2021/11/11 01:58:25;;;;;;;17.17;12.77;;;;;;;;;;5058386;28;20029;-58
2021/11/11 02:00:53;;;;;;;15.35;11.98;;;;;;;;;;5058653;28;20021;-58
2021/11/11 02:03:19;;;;;;;19.00;13.97;;;;;;;;;;5048986;28;20112;-58
2021/11/11 02:05:46;;;;;;;19.63;14.63;;;;;;;;;;5038547;28;20021;-58
2021/11/11 02:08:13;;;;;;;15.73;12.57;;;;;;;;;;5037654;28;20086;-58
2021/11/11 02:10:40;;;;;;;18.95;13.82;;;;;;;;;;5038535;28;20467;-58
2021/11/11 02:13:06;;;;;;;21.27;14.05;;;;;;;;;;5038317;28;20036;-58
2021/11/11 02:15:32;;;;;;;18.67;14.93;;;;;;;;;;5038583;28;20391;-58
2021/11/11 02:17:59;;;;;;;20.48;12.25;;;;;;;;;;5037591;28;20097;-57
2021/11/11 02:20:27;;;;;;;18.80;14.20;;;;;;;;;;5038406;28;20026;-58
2021/11/11 02:22:54;;;;;;;19.27;13.90;;;;;;;;;;5038329;28;20196;-58
2021/11/11 02:25:21;;;;;;;23.23;13.95;;;;;;;;;;5038250;28;20099;-58
2021/11/11 02:27:49;;;;;;;17.05;13.32;;;;;;;;;;5037333;28;20033;-58
2021/11/11 02:30:16;;;;;;;14.77;12.80;;;;;;;;;;5038478;28;20029;-57
2021/11/11 02:32:42;;;;;;;18.20;14.30;;;;;;;;;;5038271;28;20073;-58
2021/11/11 02:35:09;;;;;;;17.80;13.27;;;;;;;;;;5038391;28;20037;-57
2021/11/11 02:37:38;;;;;;;22.70;13.53;;;;;;;;;;5037344;28;20434;-56
2021/11/11 02:40:05;;;;;;;16.17;12.13;;;;;;;;;;5038112;28;20124;-57
2021/11/11 02:42:31;;;;;;;15.53;14.00;;;;;;;;;;5038178;28;20436;-58
2021/11/11 02:45:02;;;;;;;17.43;13.33;;;;;;;;;;5038260;28;20029;-58
2021/11/11 02:47:28;;;;;;;18.77;14.70;;;;;;;;;;5037482;28;20104;-57
2021/11/11 02:50:16;;;;;;;17.07;13.90;;;;;;;;;;5038242;28;20053;-57
2021/11/11 02:52:42;;;;;;;15.10;12.37;;;;;;;;;;5037674;28;20040;-57
2021/11/11 02:55:09;;;;;;;15.93;13.60;;;;;;;;;;5038290;28;20056;-58
2021/11/11 02:57:36;;;;;;;14.87;11.77;;;;;;;;;;5037702;28;20360;-57
2021/11/11 03:00:16;;;;;;;17.60;13.73;;;;;;;;;;5035459;28;20053;-57
2021/11/11 03:02:44;;;;;;;14.70;12.63;;;;;;;;;;5039575;28;20089;-57
2021/11/11 03:05:11;;;;;;;14.90;13.30;;;;;;;;;;5054637;28;20041;-58
2021/11/11 03:07:38;;;;;;;17.20;13.40;;;;;;;;;;5054053;28;20096;-57
2021/11/11 03:10:08;;;;;;;17.90;14.43;;;;;;;;;;5054966;28;20020;-57
2021/11/11 03:12:34;;;;;;;18.57;14.53;;;;;;;;;;5054644;28;20025;-57
2021/11/11 03:15:00;;;;;;;16.47;12.77;;;;;;;;;;5054890;28;20108;-57
2021/11/11 03:17:26;;;;;;;14.27;11.77;;;;;;;;;;5053760;28;20025;-57
2021/11/11 03:19:52;;;;;;;18.63;13.20;;;;;;;;;;5054269;28;20459;-58
2021/11/11 03:22:21;;;;;;;19.17;14.40;;;;;;;;;;5054500;28;20021;-57
2021/11/11 03:24:50;;;;;;;15.53;13.17;;;;;;;;;;5054382;28;20029;-58
2021/11/11 03:27:17;;;;;;;18.97;13.83;;;;;;;;;;5053816;28;20017;-57
2021/11/11 03:29:43;;;;;;;17.23;15.10;;;;;;;;;;5054291;28;20170;-57
2021/11/11 03:32:09;;;;;;;16.60;13.93;;;;;;;;;;5054104;28;20033;-57
2021/11/11 03:34:35;;;;;;;19.27;13.67;;;;;;;;;;5054171;28;20032;-57
2021/11/11 03:37:01;;;;;;;13.77;12.37;;;;;;;;;;5054012;28;20136;-57
2021/11/11 03:39:28;;;;;;;20.60;14.03;;;;;;;;;;5054090;28;20025;-57
2021/11/11 03:41:54;;;;;;;17.93;11.67;;;;;;;;;;5054241;28;20029;-57
2021/11/11 03:44:21;;;;;;;13.47;12.07;;;;;;;;;;5054780;28;20047;-55
2021/11/11 03:46:49;;;;;;;16.73;13.87;;;;;;;;;;5053261;28;20086;-57
2021/11/11 03:49:15;;;;;;;14.63;12.13;;;;;;;;;;5054072;28;20025;-57
2021/11/11 03:51:42;;;;;;;19.20;13.13;;;;;;;;;;5054034;28;20433;-58
2021/11/11 03:54:09;;;;;;;15.57;12.73;;;;;;;;;;5053764;28;20463;-57
2021/11/11 03:56:36;;;;;;;14.77;13.03;;;;;;;;;;5053265;28;20064;-57
2021/11/11 03:59:02;;;;;;;18.53;14.87;;;;;;;;;;5053693;28;20029;-58
2021/11/11 04:01:28;;;;;;;19.60;15.03;;;;;;;;;;5053625;28;20025;-58
2021/11/11 04:03:54;;;;;;;21.40;14.87;;;;;;;;;;5039233;28;20037;-57
2021/11/11 04:06:20;;;;;;;19.83;13.00;;;;;;;;;;5033230;28;20110;-57
2021/11/11 04:08:46;;;;;;;15.37;13.13;;;;;;;;;;5033534;28;20080;-58
2021/11/11 04:11:12;;;;;;;13.70;12.20;;;;;;;;;;5033458;28;20053;-58
2021/11/11 04:13:38;;;;;;;16.50;14.70;;;;;;;;;;5033557;28;20124;-58
2021/11/11 04:16:05;;;;;;;20.53;14.53;;;;;;;;;;5033392;28;20145;-57
2021/11/11 04:18:31;;;;;;;20.33;14.77;;;;;;;;;;5033126;28;20026;-57
2021/11/11 04:20:57;;;;;;;17.90;14.23;;;;;;;;;;5033592;28;20021;-57
2021/11/11 04:23:24;;;;;;;16.57;13.00;;;;;;;;;;5033740;28;20060;-56
2021/11/11 04:28:28;;;;;;;14.43;12.87;;;;;;;;;;5032212;28;20099;-57
2021/11/11 04:30:58;;;;;;;15.60;12.70;;;;;;;;;;5027528;28;20033;-57
2021/11/11 04:33:25;;;;;;;17.35;13.95;;;;;;;;;;5033277;28;20045;-57
2021/11/11 04:35:56;;;;;;;18.23;13.13;;;;;;;;;;5033158;28;20037;-57
2021/11/11 04:43:47;;;;;;;20.53;13.97;;;;;;;;;;5052535;28;20044;-57
2021/11/11 04:59:42;;;;;;;13.87;12.37;;;;;;;;;;5052976;28;20160;-58
2021/11/11 05:04:54;;;;;;;16.33;13.67;;;;;;;;;;5020980;28;20039;-57
2021/11/11 05:07:20;;;;;;;15.93;14.23;;;;;;;;;;5051895;28;20029;-58
2021/11/11 05:09:46;;;;;;;19.70;15.03;;;;;;;;;;5052468;28;20024;-58
2021/11/11 05:12:13;;;;;;;16.97;15.17;;;;;;;;;;5052023;28;20041;-58
2021/11/11 05:14:40;;;;;;;16.37;14.07;;;;;;;;;;5052468;28;20032;-57
2021/11/11 05:17:06;;;;;;;17.87;14.20;;;;;;;;;;5051778;28;20029;-58
2021/11/11 05:19:32;;;;;;;19.67;14.13;;;;;;;;;;5052394;28;20025;-58
2021/11/11 05:21:58;;;;;;;23.33;13.47;;;;;;;;;;5051649;28;20510;-57
2021/11/11 05:24:24;;;;;;;16.43;12.87;;;;;;;;;;5051329;28;20025;-58
2021/11/11 05:26:50;;;;;;;14.60;12.37;;;;;;;;;;5050881;28;20079;-59
2021/11/11 05:29:16;;;;;;;16.70;15.03;;;;;;;;;;5049968;28;20029;-58
2021/11/11 05:31:43;;;;;;;14.47;13.00;;;;;;;;;;5049902;28;20028;-58
2021/11/11 05:34:09;;;;;;;19.63;13.83;;;;;;;;;;5051396;28;20037;-58
2021/11/11 05:36:35;;;;;;;18.03;15.50;;;;;;;;;;5051786;28;20418;-58
2021/11/11 05:39:01;;;;;;;18.07;15.30;;;;;;;;;;5051825;28;20025;-58
2021/11/11 05:41:27;;;;;;;20.83;15.90;;;;;;;;;;5051432;28;20062;-58
2021/11/11 05:43:53;;;;;;;16.97;14.50;;;;;;;;;;5052000;28;20029;-58
2021/11/11 05:46:19;;;;;;;20.10;14.87;;;;;;;;;;5051082;28;20029;-58
2021/11/11 05:48:45;;;;;;;17.07;14.80;;;;;;;;;;5051570;28;20021;-58
2021/11/11 05:51:11;;;;;;;19.63;14.60;;;;;;;;;;5051710;28;20025;-58
2021/11/11 05:53:37;;;;;;;19.40;15.10;;;;;;;;;;5051622;28;20025;-58
2021/11/11 05:56:03;;;;;;;16.43;13.50;;;;;;;;;;5047665;28;20033;-58
2021/11/11 05:58:29;;;;;;;17.37;14.87;;;;;;;;;;5050242;28;20067;-59
2021/11/11 06:00:55;;;;;;;15.83;13.73;;;;;;;;;;5046163;28;20104;-58
2021/11/11 06:03:21;;;;;;;17.57;13.43;;;;;;;;;;5050043;28;20036;-58
2021/11/11 06:05:47;;;;;;;19.90;14.07;;;;;;;;;;5050259;28;20033;-58
2021/11/11 06:08:13;;;;;;;18.03;14.97;;;;;;;;;;5050358;28;20395;-57
2021/11/11 06:10:39;;;;;;;16.07;14.03;;;;;;;;;;5052949;28;20033;-58
2021/11/11 06:13:05;;;;;;;20.27;12.87;;;;;;;;;;5050935;28;20033;-59
2021/11/11 06:15:31;;;;;;;16.20;13.17;;;;;;;;;;5048918;28;20117;-58
2021/11/11 06:17:59;;;;;;;15.37;13.67;;;;;;;;;;5048959;28;20035;-58
2021/11/11 06:20:31;;;;;;;14.83;13.23;;;;;;;;;;5049905;28;20025;-58
2021/11/11 06:22:58;;;;;;;18.30;13.23;;;;;;;;;;5049582;28;20036;-58
2021/11/11 06:25:24;;;;;;;15.00;11.83;;;;;;;;;;5049486;28;20549;-58
2021/11/11 06:27:50;;;;;;;17.23;12.43;;;;;;;;;;5049208;28;20379;-58
2021/11/11 06:30:16;;;;;;;19.20;15.80;;;;;;;;;;5050610;28;20029;-58
2021/11/11 06:32:42;;;;;;;17.57;13.83;;;;;;;;;;5050383;28;20032;-58
2021/11/11 06:35:08;;;;;;;24.13;16.20;;;;;;;;;;5063667;28;20190;-58
2021/11/11 06:37:36;;;;;;;15.93;13.90;;;;;;;;;;5053322;28;20037;-58
2021/11/11 06:40:02;;;;;;;17.20;14.87;;;;;;;;;;5053788;28;20025;-58
2021/11/11 06:42:28;;;;;;;15.30;13.53;;;;;;;;;;5053978;28;20110;-59
2021/11/11 06:44:56;;;;;;;17.83;14.03;;;;;;;;;;5054079;28;20467;-58
2021/11/11 06:47:22;;;;;;;20.20;15.30;;;;;;;;;;5053407;28;20329;-58
2021/11/11 06:49:48;;;;;;;15.63;14.03;;;;;;;;;;5053470;28;20031;-58
2021/11/11 06:52:14;;;;;;;21.53;15.03;;;;;;;;;;5054166;28;20415;-58
2021/11/11 06:54:41;;;;;;;17.07;13.60;;;;;;;;;;5054640;28;20107;-58
2021/11/11 06:57:08;;;;;;;24.43;15.33;;;;;;;;;;5052503;28;20037;-58
2021/11/11 06:59:34;;;;;;;19.40;14.53;;;;;;;;;;5052512;28;20025;-58
2021/11/11 07:02:00;;;;;;;16.97;15.27;;;;;;;;;;5055518;28;20025;-58
2021/11/11 07:04:26;;;;;;;14.90;13.30;;;;;;;;;;5053382;28;20375;-58
2021/11/11 07:06:53;;;;;;;15.47;13.50;;;;;;;;;;5069858;28;20043;-58
2021/11/11 07:09:19;;;;;;;18.97;14.73;;;;;;;;;;5066955;28;20360;-58
2021/11/11 07:11:45;;;;;;;19.63;14.83;;;;;;;;;;5054810;28;20057;-58
2021/11/11 07:14:11;;;;;;;17.27;14.07;;;;;;;;;;5054523;28;20419;-58
2021/11/11 07:16:37;;;;;;;38.10;19.43;;;;;;;;;;5053513;28;20025;-57
2021/11/11 07:19:03;;;;;;;17.10;14.30;;;;;;;;;;5053712;28;20025;-58
2021/11/11 07:21:29;;;;;;;15.40;12.73;;;;;;;;;;5053976;28;20029;-58
2021/11/11 07:23:55;;;;;;;21.67;17.17;;;;;;;;;;5066460;28;20089;-57
2021/11/11 07:26:21;;;;;;;19.20;16.47;;;;;;;;;;5068890;28;20036;-57
2021/11/11 07:28:47;;;;;;;21.07;16.63;;;;;;;;;;5054111;28;20025;-57
2021/11/11 07:31:15;;;;;;;20.17;14.77;;;;;;;;;;5054200;28;20033;-58
2021/11/11 07:33:41;;;;;;;18.87;13.60;;;;;;;;;;5054068;28;20146;-58
2021/11/11 07:36:07;;;;;;;24.83;18.07;;;;;;;;;;5053886;28;20064;-58
2021/11/11 07:38:33;;;;;;;18.23;15.57;;;;;;;;;;5053618;28;20036;-58
2021/11/11 07:40:59;;;;;;;17.05;15.20;;;;;;;;;;5044911;28;20108;-58
2021/11/11 07:43:25;;;;;;;19.03;16.40;;;;;;;;;;5050947;28;20208;-58
2021/11/11 07:45:52;;;;;;;18.73;13.60;;;;;;;;;;5051769;28;20039;-58
2021/11/11 07:48:18;;;;;;;17.37;14.50;;;;;;;;;;5054793;28;20440;-58
2021/11/11 07:50:44;;;;;;;22.87;16.53;;;;;;;;;;5055897;28;20105;-57
2021/11/11 07:53:10;;;;;;;21.57;16.77;;;;;;;;;;5053818;28;20033;-59
2021/11/11 07:55:38;;;;;;;18.70;15.80;;;;;;;;;;5053813;28;20167;-58
2021/11/11 07:58:04;;;;;;;21.17;15.27;;;;;;;;;;5052707;28;20457;-58
2021/11/11 08:00:30;;;;;;;26.05;17.30;;;;;;;;;;5053174;28;20035;-58
2021/11/11 08:02:56;;;;;;;25.02;17.58;;;;;;;;;;5053129;28;20029;-58
2021/11/11 08:05:22;;;;;;;18.20;16.07;;;;;;;;;;5054038;28;20091;-59
2021/11/11 08:07:49;;;;;;;19.00;16.60;;;;;;;;;;5052712;28;20364;-58
2021/11/11 08:10:17;;;;;;;22.02;17.98;;;;;;;;;;5043352;28;20082;-58
2021/11/11 08:12:43;;;;;;;21.85;18.50;;;;;;;;;;5054873;28;20043;-58
2021/11/11 08:15:09;;;;;;;23.67;18.08;;;;;;;;;;5062371;28;20492;-58
2021/11/11 08:17:36;;;;;;;19.98;17.90;;;;;;;;;;5058333;28;20028;-58
2021/11/11 08:20:02;;;;;;;24.67;18.17;;;;;;;;;;5056538;28;20425;-58
2021/11/11 08:22:28;;;;;;;27.88;18.88;;;;;;;;;;5053506;28;20471;-58
2021/11/11 08:24:54;;;;;;;27.13;17.85;;;;;;;;;;5053045;28;20025;-58
2021/11/11 08:27:22;;;;;;;20.63;18.50;;;;;;;;;;5061839;28;20031;-59
2021/11/11 08:29:48;;;;;;;19.05;16.98;;;;;;;;;;5067619;28;20396;-59
2021/11/11 08:32:15;;;;;;;28.75;19.02;;;;;;;;;;5053219;28;20390;-58
2021/11/11 08:34:41;;;;;;;25.98;18.77;;;;;;;;;;5056750;28;20459;-58
2021/11/11 08:37:07;;;;;;;18.65;16.13;;;;;;;;;;5069945;28;20024;-58
2021/11/11 08:39:34;;;;;;;24.80;18.75;;;;;;;;;;5055481;28;20024;-58
2021/11/11 08:42:00;;;;;;;21.70;19.17;;;;;;;;;;5054936;28;20039;-58
2021/11/11 08:44:26;;;;;;;18.08;16.23;;;;;;;;;;5052600;28;20120;-58
2021/11/11 08:46:53;;;;;;;21.13;17.58;;;;;;;;;;5061633;28;20025;-58
2021/11/11 08:49:20;;;;;;;25.40;18.98;;;;;;;;;;5060894;28;20028;-58
2021/11/11 08:51:48;;;;;;;22.02;18.55;;;;;;;;;;5053755;28;20063;-58
2021/11/11 08:54:14;;;;;;;27.73;17.95;;;;;;;;;;5067135;28;20059;-59
2021/11/11 08:56:40;;;;;;;29.88;17.80;;;;;;;;;;5057043;28;20036;-58
2021/11/11 08:59:06;;;;;;;24.77;18.08;;;;;;;;;;5058025;28;20021;-58
2021/11/11 09:01:32;;;;;;;26.85;19.17;;;;;;;;;;5059367;28;20107;-58
2021/11/11 09:03:59;;;;;;;20.73;17.42;;;;;;;;;;5054430;28;20037;-57
2021/11/11 09:06:26;;;;;;;26.40;17.98;;;;;;;;;;5068509;28;20119;-57
2021/11/11 09:08:52;;;;;;;24.10;17.08;;;;;;;;;;5054199;28;20033;-59
2021/11/11 09:11:19;;;;;;;30.73;17.45;;;;;;;;;;5056028;28;20189;-58
2021/11/11 09:13:46;;;;;;;21.90;17.02;;;;;;;;;;5050659;28;20029;-57
2021/11/11 09:16:12;;;;;;;22.30;17.52;;;;;;;;;;5054147;28;20116;-58
2021/11/11 09:18:39;;;;;;;24.60;17.27;;;;;;;;;;5051186;28;20032;-57
2021/11/11 09:21:07;;;;;;;22.35;16.35;;;;;;;;;;5050099;28;20359;-57
2021/11/11 09:23:33;;;;;;;19.55;15.63;;;;;;;;;;5051827;28;20040;-58
2021/11/11 09:26:01;;;;;;;25.35;16.63;;;;;;;;;;5049438;28;20029;-58
2021/11/11 09:28:27;;;;;;;20.17;16.17;;;;;;;;;;5050598;28;20430;-58
2021/11/11 09:30:53;;;;;;;22.15;17.42;;;;;;;;;;5049175;28;20087;-58
2021/11/11 09:33:19;;;;;;;26.50;16.33;;;;;;;;;;5050811;28;20123;-58
2021/11/11 09:35:45;;;;;;;21.80;16.05;;;;;;;;;;5051758;28;20033;-58
2021/11/11 09:38:11;;;;;;;21.83;16.27;;;;;;;;;;5058620;28;20029;-59
2021/11/11 09:40:37;;;;;;;20.35;15.63;;;;;;;;;;5054583;28;20402;-59
2021/11/11 09:43:03;;;;;;;20.55;17.23;;;;;;;;;;5051315;28;20086;-58
2021/11/11 09:45:31;;;;;;;19.35;14.85;;;;;;;;;;5050459;28;20032;-59
2021/11/11 09:47:58;;;;;;;17.95;15.13;;;;;;;;;;5050550;28;20037;-59
2021/11/11 09:50:26;;;;;;;18.67;16.63;;;;;;;;;;5051588;28;20029;-59
2021/11/11 09:52:52;;;;;;;19.77;16.10;;;;;;;;;;5052024;28;20041;-59
2021/11/11 10:00:49;;;;;;;20.15;16.45;;;;;;;;;;5050867;28;20248;-58
2021/11/11 10:03:16;;;;;;;20.77;17.23;;;;;;;;;;5050672;28;20041;-58
2021/11/11 10:05:42;;;;;;;23.55;17.25;;;;;;;;;;5052112;28;20036;-58
2021/11/11 10:08:09;;;;;;;21.75;17.00;;;;;;;;;;5048637;28;20029;-58
2021/11/11 10:10:40;;;;;;;24.30;18.95;;;;;;;;;;5053592;28;20471;-58
2021/11/11 10:13:23;;;;;;;20.75;17.67;;;;;;;;;;5055213;28;20029;-59
2021/11/11 10:15:59;;;;;;;24.65;17.40;;;;;;;;;;5055136;28;20037;-58
2021/11/11 10:18:40;;;;;;;27.23;17.92;;;;;;;;;;5053678;28;20057;-59
2021/11/11 10:21:20;;;;;;;25.23;18.92;;;;;;;;;;5053283;28;20033;-58
2021/11/11 10:23:46;;;;;;;19.33;15.75;;;;;;;;;;5055301;28;20479;-58
2021/11/11 10:26:16;;;;;;;26.55;18.58;;;;;;;;;;5054328;28;20025;-59
2021/11/11 10:28:42;;;;;;;22.10;17.95;;;;;;;;;;5055205;28;20033;-58
2021/11/11 10:31:18;;;;;;;20.92;16.83;;;;;;;;;;5054708;28;20067;-58
2021/11/11 10:34:03;;;;;;;22.33;16.88;;;;;;;;;;5054478;28;20068;-58
2021/11/11 10:36:39;;;;;;;23.42;19.17;;;;;;;;;;5054392;28;20401;-59
2021/11/11 10:39:09;;;;;;;28.20;19.88;;;;;;;;;;5054708;28;20025;-59
2021/11/11 10:41:35;;;;;;;23.30;21.00;;;;;;;;;;5054512;28;20044;-59
2021/11/11 10:44:24;;;;;;;28.08;19.00;;;;;;;;;;5055038;28;20032;-59
2021/11/11 10:46:52;;;;;;;24.33;18.40;;;;;;;;;;5036614;28;20035;-59
2021/11/11 10:49:21;;;;;;;24.13;18.58;;;;;;;;;;5054294;28;20057;-57
2021/11/11 10:51:47;;;;;;;21.67;18.15;;;;;;;;;;5054186;28;20053;-59
2021/11/11 10:54:13;;;;;;;24.52;19.17;;;;;;;;;;5053614;28;20056;-58
2021/11/11 10:56:44;;;;;;;25.98;20.52;;;;;;;;;;5053936;28;20051;-58
2021/11/11 10:59:10;;;;;;;;;;;;;;;;;;5054751;28;20021;-57
2021/11/11 11:01:36;;;;;;;22.13;18.13;;;;;;;;;;5054192;28;20377;-57
2021/11/11 11:04:02;;;;;;;25.38;20.00;;;;;;;;;;5053424;28;20032;-57
2021/11/11 11:06:28;;;;;;;26.15;18.38;;;;;;;;;;5052895;28;20523;-58
2021/11/11 11:08:57;;;;;;;32.13;21.35;;;;;;;;;;5054330;28;20067;-57
2021/11/11 11:11:27;;;;;;;24.25;19.90;;;;;;;;;;5052715;28;20028;-57
2021/11/11 11:13:56;;;;;;;26.02;19.17;;;;;;;;;;5054027;28;20029;-57
2021/11/11 11:16:24;;;;;;;27.20;20.65;;;;;;;;;;5053645;28;20033;-58
2021/11/11 11:18:58;;;;;;;27.42;19.35;;;;;;;;;;5053391;28;20047;-57
2021/11/11 11:21:28;;;;;;;24.23;19.80;;;;;;;;;;5052765;28;20029;-58
2021/11/11 11:24:02;;;;;;;23.08;18.15;;;;;;;;;;5054268;28;20040;-57
2021/11/11 11:26:37;;;;;;;30.00;20.85;;;;;;;;;;5053273;28;20412;-58
2021/11/11 11:31:42;;;;;;;27.65;19.23;;;;;;;;;;5053308;28;20029;-57
2021/11/11 11:34:10;;;;;;;27.27;17.80;;;;;;;;;;5053511;28;20102;-58
2021/11/11 11:36:38;;;;;;;25.98;20.10;;;;;;;;;;5053013;28;20167;-58
2021/11/11 11:39:06;;;;;;;24.92;19.83;;;;;;;;;;5053562;28;20184;-57
2021/11/11 11:41:34;;;;;;;23.13;17.85;;;;;;;;;;5053707;28;20090;-57
2021/11/11 11:44:19;;;;;;;22.73;18.83;;;;;;;;;;5053455;28;20033;-58
2021/11/11 11:47:07;;;;;;;23.13;18.42;;;;;;;;;;5051943;28;20021;-57
2021/11/11 11:49:34;;;;;;;27.00;19.88;;;;;;;;;;5046776;28;20112;-57
2021/11/11 11:52:00;;;;;;;21.60;18.73;;;;;;;;;;5053058;28;20448;-58
2021/11/11 11:54:36;;;;;;;23.10;18.35;;;;;;;;;;5052830;28;20033;-58
2021/11/11 11:57:06;;;;;;;25.88;18.35;;;;;;;;;;5052709;28;20170;-58
2021/11/11 11:59:40;;;;;;;18.95;16.83;;;;;;;;;;5052943;28;20070;-58
2021/11/11 12:04:55;;;;;;;24.40;17.85;;;;;;;;;;5052286;28;20116;-57
2021/11/11 12:07:35;;;;;;;21.88;18.25;;;;;;;;;;5052043;28;20029;-57
2021/11/11 12:10:19;;;;;;;21.05;17.83;;;;;;;;;;5052797;28;20037;-58
2021/11/11 12:14:01;;;;;;;26.80;19.60;;;;;;;;;;5051761;28;20296;-58
2021/11/11 12:16:26;;;;;;;27.10;18.83;;;;;;;;;;5015301;28;20045;-58
2021/11/11 12:38:37;;;;;;;19.33;14.07;;;;;;;;;;5054766;28;20117;-58
2021/11/11 12:41:08;;;;;;;18.85;14.57;;;;;;;;;;5052438;28;20078;-58
2021/11/11 12:43:34;;;;;;;23.60;17.77;;;;;;;;;;5050921;28;20051;-58
2021/11/11 12:46:00;;;;;;;20.42;16.25;;;;;;;;;;5058253;28;20021;-58
2021/11/11 12:48:26;;;;;;;25.20;17.90;;;;;;;;;;5053263;28;20028;-58
2021/11/11 12:51:03;;;;;;;22.80;17.50;;;;;;;;;;5051690;28;20329;-58
2021/11/11 12:53:40;;;;;;;17.38;14.82;;;;;;;;;;5046190;28;20029;-57
2021/11/11 12:56:09;;;;;;;20.30;17.33;;;;;;;;;;5052101;28;20033;-58
2021/11/11 12:58:40;;;;;;;26.20;18.95;;;;;;;;;;5050571;28;20029;-57
2021/11/11 13:01:28;;;;;;;21.00;16.75;;;;;;;;;;5051987;28;20497;-57
2021/11/11 13:03:57;;;;;;;24.05;18.25;;;;;;;;;;5046631;28;20370;-58
2021/11/11 13:06:36;;;;;;;24.92;19.20;;;;;;;;;;5050628;28;20108;-58
2021/11/11 13:09:08;;;;;;;22.92;17.50;;;;;;;;;;5049845;28;20052;-57
2021/11/11 13:11:36;;;;;;;19.77;16.05;;;;;;;;;;5051714;28;20217;-57
2021/11/11 13:14:06;;;;;;;23.08;18.30;;;;;;;;;;5051683;28;20455;-57
2021/11/11 13:16:32;;;;;;;21.27;16.15;;;;;;;;;;5050714;28;20112;-57
2021/11/11 13:19:02;;;;;;;19.98;17.27;;;;;;;;;;5051345;28;20167;-57
2021/11/11 13:21:44;;;;;;;20.98;16.35;;;;;;;;;;5050601;28;20379;-57
2021/11/11 16:22:26;;;;;;;22.88;18.27;;;;;;;;;;5052340;28;20104;-58
2021/11/11 16:27:01;;;;;;;23.45;18.83;;;;;;;;;;5052268;28;20036;-58
2021/11/11 16:29:27;;;;;;;22.20;18.83;;;;;;;;;;5048274;28;20053;-57
2021/11/11 16:31:54;;;;;;;28.67;19.92;;;;;;;;;;5052271;28;20477;-59
2021/11/11 16:34:20;;;;;;;22.63;20.25;;;;;;;;;;5052409;28;20087;-59
2021/11/11 16:36:46;;;;;;;28.30;19.65;;;;;;;;;;5050792;28;20033;-58
2021/11/11 16:39:14;;;;;;;29.45;20.55;;;;;;;;;;5058042;28;20040;-58
2021/11/11 16:41:41;;;;;;;24.02;18.38;;;;;;;;;;5050446;28;20033;-58
2021/11/11 16:44:07;;;;;;;30.30;21.48;;;;;;;;;;5052683;28;20477;-58
2021/11/11 16:46:35;;;;;;;21.60;18.17;;;;;;;;;;5051594;28;20490;-58
2021/11/11 16:49:01;;;;;;;32.63;18.10;;;;;;;;;;5052435;28;20031;-57
2021/11/11 16:51:27;;;;;;;31.65;20.25;;;;;;;;;;5052565;28;20033;-58
2021/11/11 16:53:53;;;;;;;24.40;16.73;;;;;;;;;;5052373;28;20032;-58
2021/11/11 16:56:19;;;;;;;18.67;13.95;;;;;;;;;;5051853;28;20033;-58
2021/11/11 16:58:45;;;;;;;27.23;18.45;;;;;;;;;;5051971;28;20032;-58
2021/11/11 17:01:12;;;;;;;28.02;20.48;;;;;;;;;;5052370;28;20086;-58
2021/11/11 17:03:38;;;;;;;25.35;20.13;;;;;;;;;;5051883;28;20032;-58
2021/11/11 17:06:04;;;;;;;22.50;18.73;;;;;;;;;;5052343;28;20119;-58
2021/11/11 17:08:30;;;;;;;25.38;20.88;;;;;;;;;;5051519;28;20120;-58
2021/11/11 17:10:56;;;;;;;27.15;21.98;;;;;;;;;;5051937;28;20116;-57
2021/11/11 17:13:23;;;;;;;26.40;19.92;;;;;;;;;;5051831;28;20059;-58
2021/11/11 17:15:49;;;;;;;25.95;19.75;;;;;;;;;;5051871;28;20041;-58
2021/11/11 17:18:16;;;;;;;28.02;20.88;;;;;;;;;;5050981;28;20028;-58
2021/11/11 17:20:42;;;;;;;28.23;22.15;;;;;;;;;;5051742;28;20033;-58
2021/11/11 17:23:15;;;;;;;22.73;20.15;;;;;;;;;;5051626;28;20037;-58
2021/11/11 17:30:47;;;;;;;;;;;;;;;;;;5052573;28;20086;-58
2021/11/11 17:33:13;;;;;;;32.38;20.20;;;;;;;;;;5050601;28;20350;-58
2021/11/11 17:35:39;;;;;;;22.70;17.77;;;;;;;;;;5051620;28;20470;-58
2021/11/11 17:38:06;;;;;;;28.60;20.90;;;;;;;;;;5050212;28;20403;-58
2021/11/11 17:40:32;;;;;;;21.92;19.70;;;;;;;;;;5051933;28;20036;-57
2021/11/11 17:42:58;;;;;;;26.05;20.35;;;;;;;;;;5051247;28;20407;-58
2021/11/11 17:45:30;;;;;;;39.27;22.33;;;;;;;;;;5051794;28;20037;-58
2021/11/11 17:47:58;;;;;;;32.92;22.83;;;;;;;;;;5051021;28;20094;-57
2021/11/11 17:50:38;;;;;;;28.63;20.40;;;;;;;;;;5050488;28;20372;-58
2021/11/11 17:53:11;;;;;;;39.63;23.17;;;;;;;;;;5050367;28;20532;-58
2021/11/11 17:55:50;;;;;;;36.10;22.87;;;;;;;;;;5051542;28;20025;-58
2021/11/11 17:58:17;;;;;;;31.65;23.02;;;;;;;;;;5035877;28;20027;-58
2021/11/11 18:00:46;;;;;;;30.60;22.80;;;;;;;;;;5051582;28;20063;-58
2021/11/11 18:03:17;;;;;;;40.80;25.95;;;;;;;;;;5051114;28;20056;-58
2021/11/11 18:05:47;;;;;;;34.65;22.67;;;;;;;;;;5051591;28;20029;-58
2021/11/11 18:08:29;;;;;;;28.88;21.98;;;;;;;;;;5050159;28;20022;-58
2021/11/11 18:10:55;;;;;;;29.80;23.02;;;;;;;;;;5050988;28;20035;-58
2021/11/11 18:13:27;;;;;;;34.30;23.63;;;;;;;;;;5051140;28;20028;-58
2021/11/11 18:15:54;;;;;;;42.38;23.95;;;;;;;;;;5051338;28;20106;-58
2021/11/11 18:18:20;;;;;;;45.72;25.23;;;;;;;;;;5050385;28;20035;-58
2021/11/11 18:20:46;;;;;;;40.03;21.35;;;;;;;;;;5051467;28;20099;-58
2021/11/11 18:23:12;;;;;;;32.78;21.48;;;;;;;;;;5051545;28;20033;-58